sensor_id;sensor_type;location;lat;lon;timestamp;P1;durP1;ratioP1;P2;durP2;ratioP2
18507;SDS011;9383;50.928;12.116;2022-09-12T00:01:39;8.88;;;8.07;;
18507;SDS011;9383;50.928;12.116;2022-09-12T00:04:06;7.97;;;7.32;;
18507;SDS011;9383;50.928;12.116;2022-09-12T00:06:35;7.90;;;7.28;;
18507;SDS011;9383;50.928;12.116;2022-09-12T00:09:03;9.23;;;8.43;;
18507;SDS011;9383;50.928;12.116;2022-09-12T00:11:41;9.38;;;8.57;;
18507;SDS011;9383;50.928;12.116;2022-09-12T00:14:11;9.80;;;8.85;;
18507;SDS011;9383;50.928;12.116;2022-09-12T00:16:41;8.82;;;8.10;;
18507;SDS011;9383;50.928;12.116;2022-09-12T00:19:08;8.43;;;7.72;;
18507;SDS011;9383;50.928;12.116;2022-09-12T00:21:36;7.50;;;6.80;;
18507;SDS011;9383;50.928;12.116;2022-09-12T00:24:04;7.78;;;7.13;;
18507;SDS011;9383;50.928;12.116;2022-09-12T00:26:32;7.63;;;7.05;;
18507;SDS011;9383;50.928;12.116;2022-09-12T00:28:59;7.13;;;6.53;;
18507;SDS011;9383;50.928;12.116;2022-09-12T00:31:25;7.38;;;6.78;;
18507;SDS011;9383;50.928;12.116;2022-09-12T00:33:54;6.47;;;5.93;;
18507;SDS011;9383;50.928;12.116;2022-09-12T00:36:23;6.30;;;5.80;;
18507;SDS011;9383;50.928;12.116;2022-09-12T00:38:51;6.93;;;6.30;;
18507;SDS011;9383;50.928;12.116;2022-09-12T00:41:23;7.35;;;6.70;;
18507;SDS011;9383;50.928;12.116;2022-09-12T00:43:57;6.63;;;6.05;;
18507;SDS011;9383;50.928;12.116;2022-09-12T00:46:45;7.00;;;6.30;;
18507;SDS011;9383;50.928;12.116;2022-09-12T00:52:04;6.65;;;5.82;;
18507;SDS011;9383;50.928;12.116;2022-09-12T00:54:41;7.03;;;6.20;;
18507;SDS011;9383;50.928;12.116;2022-09-12T00:57:19;7.20;;;5.57;;
18507;SDS011;9383;50.928;12.116;2022-09-12T01:00:09;6.40;;;5.80;;
18507;SDS011;9383;50.928;12.116;2022-09-12T01:02:43;6.78;;;6.15;;
18507;SDS011;9383;50.928;12.116;2022-09-12T01:05:14;6.25;;;5.72;;
18507;SDS011;9383;50.928;12.116;2022-09-12T01:07:42;6.03;;;5.53;;
18507;SDS011;9383;50.928;12.116;2022-09-12T01:10:12;6.32;;;5.82;;
18507;SDS011;9383;50.928;12.116;2022-09-12T01:12:41;5.78;;;5.28;;
18507;SDS011;9383;50.928;12.116;2022-09-12T01:15:08;5.90;;;5.40;;
18507;SDS011;9383;50.928;12.116;2022-09-12T01:17:39;5.65;;;5.22;;
18507;SDS011;9383;50.928;12.116;2022-09-12T01:20:43;5.68;;;5.13;;
18507;SDS011;9383;50.928;12.116;2022-09-12T01:23:48;8.23;;;5.68;;
18507;SDS011;9383;50.928;12.116;2022-09-12T01:27:03;6.78;;;6.03;;
18507;SDS011;9383;50.928;12.116;2022-09-12T01:33:39;6.53;;;6.03;;
18507;SDS011;9383;50.928;12.116;2022-09-12T01:39:03;8.07;;;7.25;;
18507;SDS011;9383;50.928;12.116;2022-09-12T01:41:53;8.20;;;6.18;;
18507;SDS011;9383;50.928;12.116;2022-09-12T01:47:39;6.28;;;5.68;;
18507;SDS011;9383;50.928;12.116;2022-09-12T01:52:59;5.78;;;5.30;;
18507;SDS011;9383;50.928;12.116;2022-09-12T01:58:19;5.47;;;5.07;;
18507;SDS011;9383;50.928;12.116;2022-09-12T02:00:55;5.68;;;5.13;;
18507;SDS011;9383;50.928;12.116;2022-09-12T02:03:32;6.63;;;6.05;;
18507;SDS011;9383;50.928;12.116;2022-09-12T02:06:11;6.78;;;6.07;;
18507;SDS011;9383;50.928;12.116;2022-09-12T02:08:50;7.00;;;5.40;;
18507;SDS011;9383;50.928;12.116;2022-09-12T02:11:23;6.15;;;5.57;;
18507;SDS011;9383;50.928;12.116;2022-09-12T02:13:55;5.63;;;5.13;;
18507;SDS011;9383;50.928;12.116;2022-09-12T02:17:03;6.57;;;5.97;;
18507;SDS011;9383;50.928;12.116;2022-09-12T02:19:31;6.03;;;5.53;;
18507;SDS011;9383;50.928;12.116;2022-09-12T02:22:05;6.63;;;6.03;;
18507;SDS011;9383;50.928;12.116;2022-09-12T02:24:37;9.57;;;8.30;;
18507;SDS011;9383;50.928;12.116;2022-09-12T02:27:13;10.25;;;7.32;;
18507;SDS011;9383;50.928;12.116;2022-09-12T02:29:45;7.93;;;7.22;;
18507;SDS011;9383;50.928;12.116;2022-09-12T02:32:19;7.05;;;6.35;;
18507;SDS011;9383;50.928;12.116;2022-09-12T02:35:14;6.75;;;6.15;;
18507;SDS011;9383;50.928;12.116;2022-09-12T02:41:11;9.82;;;8.55;;
18507;SDS011;9383;50.928;12.116;2022-09-12T02:43:42;9.00;;;8.20;;
18507;SDS011;9383;50.928;12.116;2022-09-12T02:46:09;8.82;;;7.90;;
18507;SDS011;9383;50.928;12.116;2022-09-12T02:48:46;8.02;;;7.25;;
18507;SDS011;9383;50.928;12.116;2022-09-12T02:51:12;6.80;;;6.20;;
18507;SDS011;9383;50.928;12.116;2022-09-12T02:53:39;7.93;;;6.82;;
18507;SDS011;9383;50.928;12.116;2022-09-12T02:56:07;6.53;;;5.78;;
18507;SDS011;9383;50.928;12.116;2022-09-12T02:58:47;6.63;;;5.85;;
18507;SDS011;9383;50.928;12.116;2022-09-12T03:01:21;6.88;;;6.20;;
18507;SDS011;9383;50.928;12.116;2022-09-12T03:07:25;7.03;;;6.32;;
18507;SDS011;9383;50.928;12.116;2022-09-12T03:19:43;8.07;;;7.28;;
18507;SDS011;9383;50.928;12.116;2022-09-12T03:22:33;7.05;;;6.40;;
18507;SDS011;9383;50.928;12.116;2022-09-12T03:25:22;7.20;;;6.43;;
18507;SDS011;9383;50.928;12.116;2022-09-12T03:28:02;7.03;;;6.38;;
18507;SDS011;9383;50.928;12.116;2022-09-12T03:30:38;6.50;;;5.90;;
18507;SDS011;9383;50.928;12.116;2022-09-12T03:33:10;6.80;;;6.10;;
18507;SDS011;9383;50.928;12.116;2022-09-12T03:35:42;6.75;;;6.15;;
18507;SDS011;9383;50.928;12.116;2022-09-12T03:38:10;7.68;;;6.93;;
18507;SDS011;9383;50.928;12.116;2022-09-12T03:40:36;8.93;;;7.15;;
18507;SDS011;9383;50.928;12.116;2022-09-12T03:43:05;7.82;;;7.13;;
18507;SDS011;9383;50.928;12.116;2022-09-12T03:45:33;6.97;;;6.28;;
18507;SDS011;9383;50.928;12.116;2022-09-12T03:48:00;7.05;;;6.45;;
18507;SDS011;9383;50.928;12.116;2022-09-12T03:50:27;7.43;;;6.72;;
18507;SDS011;9383;50.928;12.116;2022-09-12T03:52:53;7.78;;;6.38;;
18507;SDS011;9383;50.928;12.116;2022-09-12T03:55:21;7.32;;;6.72;;
18507;SDS011;9383;50.928;12.116;2022-09-12T03:57:47;7.32;;;6.55;;
18507;SDS011;9383;50.928;12.116;2022-09-12T04:00:17;6.82;;;6.30;;
18507;SDS011;9383;50.928;12.116;2022-09-12T04:02:43;9.00;;;8.18;;
18507;SDS011;9383;50.928;12.116;2022-09-12T04:05:09;9.93;;;8.93;;
18507;SDS011;9383;50.928;12.116;2022-09-12T04:07:36;9.18;;;8.30;;
18507;SDS011;9383;50.928;12.116;2022-09-12T04:10:02;10.65;;;8.63;;
18507;SDS011;9383;50.928;12.116;2022-09-12T04:12:30;14.95;;;9.45;;
18507;SDS011;9383;50.928;12.116;2022-09-12T04:14:56;14.10;;;10.98;;
18507;SDS011;9383;50.928;12.116;2022-09-12T04:17:22;11.10;;;9.98;;
18507;SDS011;9383;50.928;12.116;2022-09-12T04:19:48;12.77;;;10.27;;
18507;SDS011;9383;50.928;12.116;2022-09-12T04:22:15;11.10;;;10.00;;
18507;SDS011;9383;50.928;12.116;2022-09-12T04:24:42;16.75;;;10.70;;
18507;SDS011;9383;50.928;12.116;2022-09-12T04:27:08;15.68;;;10.98;;
18507;SDS011;9383;50.928;12.116;2022-09-12T04:29:34;14.70;;;10.98;;
18507;SDS011;9383;50.928;12.116;2022-09-12T04:32:01;11.27;;;10.05;;
18507;SDS011;9383;50.928;12.116;2022-09-12T04:34:29;15.00;;;9.88;;
18507;SDS011;9383;50.928;12.116;2022-09-12T04:36:56;13.10;;;9.75;;
18507;SDS011;9383;50.928;12.116;2022-09-12T04:39:23;11.23;;;9.63;;
18507;SDS011;9383;50.928;12.116;2022-09-12T04:41:49;11.25;;;10.15;;
18507;SDS011;9383;50.928;12.116;2022-09-12T04:44:16;12.25;;;11.02;;
18507;SDS011;9383;50.928;12.116;2022-09-12T04:46:43;11.13;;;9.95;;
18507;SDS011;9383;50.928;12.116;2022-09-12T04:49:11;11.48;;;10.13;;
18507;SDS011;9383;50.928;12.116;2022-09-12T04:51:41;11.23;;;10.20;;
18507;SDS011;9383;50.928;12.116;2022-09-12T04:54:11;11.07;;;10.02;;
18507;SDS011;9383;50.928;12.116;2022-09-12T04:56:41;11.52;;;10.45;;
18507;SDS011;9383;50.928;12.116;2022-09-12T04:59:10;11.10;;;10.10;;
18507;SDS011;9383;50.928;12.116;2022-09-12T05:01:38;10.35;;;9.38;;
18507;SDS011;9383;50.928;12.116;2022-09-12T05:04:05;10.65;;;9.57;;
18507;SDS011;9383;50.928;12.116;2022-09-12T05:06:33;13.18;;;9.93;;
18507;SDS011;9383;50.928;12.116;2022-09-12T05:09:02;9.73;;;8.73;;
18507;SDS011;9383;50.928;12.116;2022-09-12T05:11:33;8.73;;;7.93;;
18507;SDS011;9383;50.928;12.116;2022-09-12T05:14:03;9.75;;;8.63;;
18507;SDS011;9383;50.928;12.116;2022-09-12T05:16:31;10.00;;;9.02;;
18507;SDS011;9383;50.928;12.116;2022-09-12T05:18:57;12.23;;;8.40;;
18507;SDS011;9383;50.928;12.116;2022-09-12T05:21:24;8.77;;;7.80;;
18507;SDS011;9383;50.928;12.116;2022-09-12T05:23:51;11.63;;;9.27;;
18507;SDS011;9383;50.928;12.116;2022-09-12T05:26:21;11.52;;;9.23;;
18507;SDS011;9383;50.928;12.116;2022-09-12T05:28:48;11.65;;;10.40;;
18507;SDS011;9383;50.928;12.116;2022-09-12T05:31:18;9.40;;;8.50;;
18507;SDS011;9383;50.928;12.116;2022-09-12T05:33:53;9.43;;;8.43;;
18507;SDS011;9383;50.928;12.116;2022-09-12T05:36:21;9.75;;;8.80;;
18507;SDS011;9383;50.928;12.116;2022-09-12T05:38:50;10.10;;;8.35;;
18507;SDS011;9383;50.928;12.116;2022-09-12T05:41:19;8.80;;;7.95;;
18507;SDS011;9383;50.928;12.116;2022-09-12T05:43:52;10.48;;;9.35;;
18507;SDS011;9383;50.928;12.116;2022-09-12T05:46:24;10.27;;;9.27;;
18507;SDS011;9383;50.928;12.116;2022-09-12T05:48:54;9.70;;;8.80;;
18507;SDS011;9383;50.928;12.116;2022-09-12T05:51:24;9.52;;;8.65;;
18507;SDS011;9383;50.928;12.116;2022-09-12T05:53:56;9.27;;;8.48;;
18507;SDS011;9383;50.928;12.116;2022-09-12T05:56:25;9.60;;;8.80;;
18507;SDS011;9383;50.928;12.116;2022-09-12T05:59:03;10.27;;;9.40;;
18507;SDS011;9383;50.928;12.116;2022-09-12T06:01:40;12.10;;;10.80;;
18507;SDS011;9383;50.928;12.116;2022-09-12T06:04:07;12.38;;;11.18;;
18507;SDS011;9383;50.928;12.116;2022-09-12T06:06:38;11.85;;;10.75;;
18507;SDS011;9383;50.928;12.116;2022-09-12T06:09:07;13.27;;;11.98;;
18507;SDS011;9383;50.928;12.116;2022-09-12T06:11:36;13.77;;;12.40;;
18507;SDS011;9383;50.928;12.116;2022-09-12T06:14:08;14.40;;;12.93;;
18507;SDS011;9383;50.928;12.116;2022-09-12T06:16:40;14.15;;;12.68;;
18507;SDS011;9383;50.928;12.116;2022-09-12T06:19:10;17.27;;;13.43;;
18507;SDS011;9383;50.928;12.116;2022-09-12T06:21:42;16.15;;;14.48;;
18507;SDS011;9383;50.928;12.116;2022-09-12T06:24:09;15.75;;;13.93;;
18507;SDS011;9383;50.928;12.116;2022-09-12T06:26:37;14.70;;;13.10;;
18507;SDS011;9383;50.928;12.116;2022-09-12T06:29:03;13.55;;;12.25;;
18507;SDS011;9383;50.928;12.116;2022-09-12T06:31:33;14.30;;;12.80;;
18507;SDS011;9383;50.928;12.116;2022-09-12T06:34:02;17.33;;;14.43;;
18507;SDS011;9383;50.928;12.116;2022-09-12T06:36:32;13.45;;;12.05;;
18507;SDS011;9383;50.928;12.116;2022-09-12T06:39:04;13.35;;;12.05;;
18507;SDS011;9383;50.928;12.116;2022-09-12T06:41:35;14.07;;;12.70;;
18507;SDS011;9383;50.928;12.116;2022-09-12T06:44:03;14.40;;;13.00;;
18507;SDS011;9383;50.928;12.116;2022-09-12T06:46:30;14.60;;;13.18;;
18507;SDS011;9383;50.928;12.116;2022-09-12T06:48:57;13.88;;;12.10;;
18507;SDS011;9383;50.928;12.116;2022-09-12T06:51:25;13.95;;;12.65;;
18507;SDS011;9383;50.928;12.116;2022-09-12T06:53:53;13.13;;;11.93;;
18507;SDS011;9383;50.928;12.116;2022-09-12T06:56:22;14.65;;;12.02;;
18507;SDS011;9383;50.928;12.116;2022-09-12T06:58:52;12.15;;;11.00;;
18507;SDS011;9383;50.928;12.116;2022-09-12T07:01:23;13.25;;;11.82;;
18507;SDS011;9383;50.928;12.116;2022-09-12T07:03:57;13.07;;;11.52;;
18507;SDS011;9383;50.928;12.116;2022-09-12T07:06:26;13.75;;;12.35;;
18507;SDS011;9383;50.928;12.116;2022-09-12T07:08:57;14.25;;;11.75;;
18507;SDS011;9383;50.928;12.116;2022-09-12T07:11:25;13.05;;;11.70;;
18507;SDS011;9383;50.928;12.116;2022-09-12T07:13:59;13.43;;;12.02;;
18507;SDS011;9383;50.928;12.116;2022-09-12T07:16:28;13.60;;;11.98;;
18507;SDS011;9383;50.928;12.116;2022-09-12T07:18:58;12.65;;;11.35;;
18507;SDS011;9383;50.928;12.116;2022-09-12T07:21:27;11.38;;;10.18;;
18507;SDS011;9383;50.928;12.116;2022-09-12T07:23:54;10.50;;;9.50;;
18507;SDS011;9383;50.928;12.116;2022-09-12T07:26:22;10.65;;;9.15;;
18507;SDS011;9383;50.928;12.116;2022-09-12T07:28:51;10.93;;;9.65;;
18507;SDS011;9383;50.928;12.116;2022-09-12T07:31:21;11.45;;;10.25;;
18507;SDS011;9383;50.928;12.116;2022-09-12T07:33:49;11.60;;;10.02;;
18507;SDS011;9383;50.928;12.116;2022-09-12T07:36:17;11.05;;;9.90;;
18507;SDS011;9383;50.928;12.116;2022-09-12T07:38:47;11.30;;;9.93;;
18507;SDS011;9383;50.928;12.116;2022-09-12T07:41:18;12.38;;;10.20;;
18507;SDS011;9383;50.928;12.116;2022-09-12T07:43:50;11.48;;;10.27;;
18507;SDS011;9383;50.928;12.116;2022-09-12T07:46:22;11.93;;;9.70;;
18507;SDS011;9383;50.928;12.116;2022-09-12T07:48:50;13.18;;;10.88;;
18507;SDS011;9383;50.928;12.116;2022-09-12T07:51:19;12.30;;;10.25;;
18507;SDS011;9383;50.928;12.116;2022-09-12T07:53:46;13.15;;;10.30;;
18507;SDS011;9383;50.928;12.116;2022-09-12T07:56:13;11.88;;;10.25;;
18507;SDS011;9383;50.928;12.116;2022-09-12T07:58:41;10.70;;;9.60;;
18507;SDS011;9383;50.928;12.116;2022-09-12T08:01:18;12.30;;;10.13;;
18507;SDS011;9383;50.928;12.116;2022-09-12T08:03:48;10.60;;;9.38;;
18507;SDS011;9383;50.928;12.116;2022-09-12T08:06:19;10.48;;;9.38;;
18507;SDS011;9383;50.928;12.116;2022-09-12T08:08:50;10.40;;;9.18;;
18507;SDS011;9383;50.928;12.116;2022-09-12T08:11:19;11.18;;;10.07;;
18507;SDS011;9383;50.928;12.116;2022-09-12T08:13:47;12.05;;;10.32;;
18507;SDS011;9383;50.928;12.116;2022-09-12T08:16:16;12.25;;;10.43;;
18507;SDS011;9383;50.928;12.116;2022-09-12T08:18:46;10.07;;;9.07;;
18507;SDS011;9383;50.928;12.116;2022-09-12T08:21:17;10.32;;;9.23;;
18507;SDS011;9383;50.928;12.116;2022-09-12T08:23:56;9.68;;;8.60;;
18507;SDS011;9383;50.928;12.116;2022-09-12T08:26:32;10.55;;;8.45;;
18507;SDS011;9383;50.928;12.116;2022-09-12T08:28:58;12.70;;;9.30;;
18507;SDS011;9383;50.928;12.116;2022-09-12T08:31:26;9.43;;;8.43;;
18507;SDS011;9383;50.928;12.116;2022-09-12T08:33:56;9.95;;;8.88;;
18507;SDS011;9383;50.928;12.116;2022-09-12T08:36:24;10.30;;;8.57;;
18507;SDS011;9383;50.928;12.116;2022-09-12T08:38:53;11.60;;;8.60;;
18507;SDS011;9383;50.928;12.116;2022-09-12T08:41:37;10.07;;;9.07;;
18507;SDS011;9383;50.928;12.116;2022-09-12T08:49:52;10.35;;;8.52;;
18507;SDS011;9383;50.928;12.116;2022-09-12T08:55:26;9.75;;;8.75;;
18507;SDS011;9383;50.928;12.116;2022-09-12T09:00:53;10.23;;;7.95;;
18507;SDS011;9383;50.928;12.116;2022-09-12T09:03:46;10.27;;;8.43;;
18507;SDS011;9383;50.928;12.116;2022-09-12T09:09:29;11.20;;;8.05;;
18507;SDS011;9383;50.928;12.116;2022-09-12T09:18:14;10.60;;;8.55;;
18507;SDS011;9383;50.928;12.116;2022-09-12T09:20:56;8.80;;;7.72;;
18507;SDS011;9383;50.928;12.116;2022-09-12T09:23:38;8.40;;;7.55;;
18507;SDS011;9383;50.928;12.116;2022-09-12T09:26:26;8.05;;;6.88;;
18507;SDS011;9383;50.928;12.116;2022-09-12T09:31:48;5.80;;;5.20;;
18507;SDS011;9383;50.928;12.116;2022-09-12T09:34:23;6.43;;;5.72;;
18507;SDS011;9383;50.928;12.116;2022-09-12T09:37:14;5.88;;;4.82;;
18507;SDS011;9383;50.928;12.116;2022-09-12T09:42:40;4.40;;;4.00;;
18507;SDS011;9383;50.928;12.116;2022-09-12T09:45:30;3.80;;;3.20;;
18507;SDS011;9383;50.928;12.116;2022-09-12T09:47:59;4.60;;;4.20;;
18507;SDS011;9383;50.928;12.116;2022-09-12T09:50:40;3.80;;;3.50;;
18507;SDS011;9383;50.928;12.116;2022-09-12T09:53:19;3.63;;;3.33;;
18507;SDS011;9383;50.928;12.116;2022-09-12T09:56:00;3.65;;;3.35;;
18507;SDS011;9383;50.928;12.116;2022-09-12T09:58:34;5.72;;;4.35;;
18507;SDS011;9383;50.928;12.116;2022-09-12T10:01:11;5.07;;;4.35;;
18507;SDS011;9383;50.928;12.116;2022-09-12T10:03:51;4.25;;;3.95;;
18507;SDS011;9383;50.928;12.116;2022-09-12T10:06:30;3.53;;;3.22;;
18507;SDS011;9383;50.928;12.116;2022-09-12T10:09:03;4.95;;;3.15;;
18507;SDS011;9383;50.928;12.116;2022-09-12T10:11:39;4.55;;;2.60;;
18507;SDS011;9383;50.928;12.116;2022-09-12T10:14:17;2.47;;;2.28;;
18507;SDS011;9383;50.928;12.116;2022-09-12T10:17:26;2.60;;;2.40;;
18507;SDS011;9383;50.928;12.116;2022-09-12T10:19:57;3.30;;;2.97;;
18507;SDS011;9383;50.928;12.116;2022-09-12T10:22:25;3.50;;;3.20;;
18507;SDS011;9383;50.928;12.116;2022-09-12T10:24:55;2.72;;;2.53;;
18507;SDS011;9383;50.928;12.116;2022-09-12T10:27:25;2.80;;;2.60;;
18507;SDS011;9383;50.928;12.116;2022-09-12T10:32:56;3.20;;;3.00;;
18507;SDS011;9383;50.928;12.116;2022-09-12T10:35:41;3.33;;;3.03;;
18507;SDS011;9383;50.928;12.116;2022-09-12T10:40:56;3.92;;;3.25;;
18507;SDS011;9383;50.928;12.116;2022-09-12T10:43:29;4.10;;;3.80;;
18507;SDS011;9383;50.928;12.116;2022-09-12T10:46:19;3.50;;;3.20;;
18507;SDS011;9383;50.928;12.116;2022-09-12T10:49:11;3.60;;;2.97;;
18507;SDS011;9383;50.928;12.116;2022-09-12T10:51:43;3.10;;;2.80;;
18507;SDS011;9383;50.928;12.116;2022-09-12T10:54:09;3.33;;;3.03;;
18507;SDS011;9383;50.928;12.116;2022-09-12T10:56:43;4.45;;;2.90;;
18507;SDS011;9383;50.928;12.116;2022-09-12T11:02:21;2.95;;;2.70;;
18507;SDS011;9383;50.928;12.116;2022-09-12T11:05:11;2.97;;;2.78;;
18507;SDS011;9383;50.928;12.116;2022-09-12T11:07:54;3.55;;;2.58;;
18507;SDS011;9383;50.928;12.116;2022-09-12T11:34:22;2.72;;;2.53;;
18507;SDS011;9383;50.928;12.116;2022-09-12T11:39:47;3.15;;;2.40;;
18507;SDS011;9383;50.928;12.116;2022-09-12T11:42:20;2.92;;;2.72;;
18507;SDS011;9383;50.928;12.116;2022-09-12T11:45:03;2.78;;;2.50;;
18507;SDS011;9383;50.928;12.116;2022-09-12T11:47:57;2.75;;;2.55;;
18507;SDS011;9383;50.928;12.116;2022-09-12T11:50:31;2.80;;;2.60;;
18507;SDS011;9383;50.928;12.116;2022-09-12T11:53:39;2.72;;;2.25;;
18507;SDS011;9383;50.928;12.116;2022-09-12T11:55:59;2.70;;;2.50;;
18507;SDS011;9383;50.928;12.116;2022-09-12T11:58:37;3.05;;;2.20;;
18507;SDS011;9383;50.928;12.116;2022-09-12T12:03:41;2.28;;;2.13;;
18507;SDS011;9383;50.928;12.116;2022-09-12T12:06:11;3.10;;;2.50;;
18507;SDS011;9383;50.928;12.116;2022-09-12T12:08:50;2.30;;;2.10;;
18507;SDS011;9383;50.928;12.116;2022-09-12T12:11:31;2.42;;;2.22;;
18507;SDS011;9383;50.928;12.116;2022-09-12T12:14:12;2.50;;;2.30;;
18507;SDS011;9383;50.928;12.116;2022-09-12T12:16:48;3.05;;;2.15;;
18507;SDS011;9383;50.928;12.116;2022-09-12T12:21:43;2.55;;;2.33;;
18507;SDS011;9383;50.928;12.116;2022-09-12T12:24:16;2.30;;;2.10;;
18507;SDS011;9383;50.928;12.116;2022-09-12T12:27:03;3.03;;;2.72;;
18507;SDS011;9383;50.928;12.116;2022-09-12T12:29:48;2.20;;;2.10;;
18507;SDS011;9383;50.928;12.116;2022-09-12T12:32:19;2.53;;;2.30;;
18507;SDS011;9383;50.928;12.116;2022-09-12T12:34:47;2.40;;;2.20;;
18507;SDS011;9383;50.928;12.116;2022-09-12T12:45:43;2.38;;;2.28;;
18507;SDS011;9383;50.928;12.116;2022-09-12T12:50:39;2.45;;;2.33;;
18507;SDS011;9383;50.928;12.116;2022-09-12T12:53:16;3.47;;;2.60;;
18507;SDS011;9383;50.928;12.116;2022-09-12T12:55:53;2.80;;;2.20;;
18507;SDS011;9383;50.928;12.116;2022-09-12T12:58:25;2.28;;;2.17;;
18507;SDS011;9383;50.928;12.116;2022-09-12T13:03:40;2.33;;;2.22;;
18507;SDS011;9383;50.928;12.116;2022-09-12T13:06:23;2.40;;;2.20;;
18507;SDS011;9383;50.928;12.116;2022-09-12T13:09:04;2.50;;;2.30;;
18507;SDS011;9383;50.928;12.116;2022-09-12T13:11:44;2.53;;;2.33;;
18507;SDS011;9383;50.928;12.116;2022-09-12T13:17:07;2.35;;;2.15;;
18507;SDS011;9383;50.928;12.116;2022-09-12T13:19:47;2.03;;;1.90;;
18507;SDS011;9383;50.928;12.116;2022-09-12T13:22:16;2.95;;;2.13;;
18507;SDS011;9383;50.928;12.116;2022-09-12T13:24:47;3.08;;;2.50;;
18507;SDS011;9383;50.928;12.116;2022-09-12T13:27:18;2.90;;;2.15;;
18507;SDS011;9383;50.928;12.116;2022-09-12T13:29:48;2.00;;;1.90;;
18507;SDS011;9383;50.928;12.116;2022-09-12T13:32:30;3.08;;;2.15;;
18507;SDS011;9383;50.928;12.116;2022-09-12T13:35:08;2.83;;;2.63;;
18507;SDS011;9383;50.928;12.116;2022-09-12T13:38:04;2.65;;;2.47;;
18507;SDS011;9383;50.928;12.116;2022-09-12T13:43:43;2.50;;;2.30;;
18507;SDS011;9383;50.928;12.116;2022-09-12T13:46:13;2.22;;;2.05;;
18507;SDS011;9383;50.928;12.116;2022-09-12T13:48:51;2.17;;;2.05;;
18507;SDS011;9383;50.928;12.116;2022-09-12T13:51:23;2.45;;;2.30;;
18507;SDS011;9383;50.928;12.116;2022-09-12T13:53:58;2.47;;;2.28;;
18507;SDS011;9383;50.928;12.116;2022-09-12T13:56:29;2.13;;;2.03;;
18507;SDS011;9383;50.928;12.116;2022-09-12T13:58:57;2.75;;;2.55;;
18507;SDS011;9383;50.928;12.116;2022-09-12T14:01:37;2.20;;;2.00;;
18507;SDS011;9383;50.928;12.116;2022-09-12T14:07:17;3.47;;;2.25;;
18507;SDS011;9383;50.928;12.116;2022-09-12T14:09:54;3.63;;;2.25;;
18507;SDS011;9383;50.928;12.116;2022-09-12T14:14:54;2.42;;;2.30;;
18507;SDS011;9383;50.928;12.116;2022-09-12T14:17:35;2.83;;;2.40;;
18507;SDS011;9383;50.928;12.116;2022-09-12T14:20:10;2.53;;;2.10;;
18507;SDS011;9383;50.928;12.116;2022-09-12T14:22:42;2.15;;;2.03;;
18507;SDS011;9383;50.928;12.116;2022-09-12T14:25:13;2.28;;;2.17;;
18507;SDS011;9383;50.928;12.116;2022-09-12T14:27:44;2.10;;;2.00;;
18507;SDS011;9383;50.928;12.116;2022-09-12T14:35:37;2.10;;;2.00;;
18507;SDS011;9383;50.928;12.116;2022-09-12T14:38:20;2.30;;;2.10;;
18507;SDS011;9383;50.928;12.116;2022-09-12T14:41:00;2.00;;;1.90;;
18507;SDS011;9383;50.928;12.116;2022-09-12T14:43:33;2.50;;;2.38;;
18507;SDS011;9383;50.928;12.116;2022-09-12T14:46:04;2.08;;;1.98;;
18507;SDS011;9383;50.928;12.116;2022-09-12T14:48:42;3.53;;;2.20;;
18507;SDS011;9383;50.928;12.116;2022-09-12T14:51:17;2.53;;;2.30;;
18507;SDS011;9383;50.928;12.116;2022-09-12T14:53:59;2.20;;;1.92;;
18507;SDS011;9383;50.928;12.116;2022-09-12T14:56:39;2.55;;;2.35;;
18507;SDS011;9383;50.928;12.116;2022-09-12T15:04:51;3.05;;;2.22;;
18507;SDS011;9383;50.928;12.116;2022-09-12T15:10:27;3.83;;;2.17;;
18507;SDS011;9383;50.928;12.116;2022-09-12T15:15:41;1.98;;;1.80;;
18507;SDS011;9383;50.928;12.116;2022-09-12T15:18:17;3.85;;;2.25;;
18507;SDS011;9383;50.928;12.116;2022-09-12T15:20:45;2.70;;;2.20;;
18507;SDS011;9383;50.928;12.116;2022-09-12T15:23:17;1.95;;;1.85;;
18507;SDS011;9383;50.928;12.116;2022-09-12T15:26:03;2.00;;;1.90;;
18507;SDS011;9383;50.928;12.116;2022-09-12T15:28:31;2.15;;;2.05;;
18507;SDS011;9383;50.928;12.116;2022-09-12T15:31:05;2.10;;;2.00;;
18507;SDS011;9383;50.928;12.116;2022-09-12T15:33:37;2.20;;;2.00;;
18507;SDS011;9383;50.928;12.116;2022-09-12T15:36:07;2.00;;;1.90;;
18507;SDS011;9383;50.928;12.116;2022-09-12T15:38:47;2.35;;;2.15;;
18507;SDS011;9383;50.928;12.116;2022-09-12T15:41:16;2.40;;;2.20;;
18507;SDS011;9383;50.928;12.116;2022-09-12T15:44:05;2.80;;;2.60;;
18507;SDS011;9383;50.928;12.116;2022-09-12T15:46:38;2.42;;;2.10;;
18507;SDS011;9383;50.928;12.116;2022-09-12T15:49:05;2.60;;;2.40;;
18507;SDS011;9383;50.928;12.116;2022-09-12T15:51:34;3.00;;;2.40;;
18507;SDS011;9383;50.928;12.116;2022-09-12T15:54:02;2.10;;;2.00;;
18507;SDS011;9383;50.928;12.116;2022-09-12T15:56:29;2.38;;;2.28;;
18507;SDS011;9383;50.928;12.116;2022-09-12T15:58:55;2.22;;;2.13;;
18507;SDS011;9383;50.928;12.116;2022-09-12T16:01:24;2.70;;;2.50;;
18507;SDS011;9383;50.928;12.116;2022-09-12T16:03:51;2.38;;;2.17;;
18507;SDS011;9383;50.928;12.116;2022-09-12T16:06:18;2.78;;;2.45;;
18507;SDS011;9383;50.928;12.116;2022-09-12T16:08:45;2.63;;;2.40;;
18507;SDS011;9383;50.928;12.116;2022-09-12T16:11:20;2.33;;;2.20;;
18507;SDS011;9383;50.928;12.116;2022-09-12T16:13:50;2.47;;;2.33;;
18507;SDS011;9383;50.928;12.116;2022-09-12T16:16:19;2.13;;;1.98;;
18507;SDS011;9383;50.928;12.116;2022-09-12T16:18:46;2.42;;;2.05;;
18507;SDS011;9383;50.928;12.116;2022-09-12T16:21:13;2.45;;;2.03;;
18507;SDS011;9383;50.928;12.116;2022-09-12T16:23:41;3.97;;;2.35;;
18507;SDS011;9383;50.928;12.116;2022-09-12T16:26:08;2.67;;;2.45;;
18507;SDS011;9383;50.928;12.116;2022-09-12T16:28:34;2.47;;;2.20;;
18507;SDS011;9383;50.928;12.116;2022-09-12T16:31:04;2.00;;;1.90;;
18507;SDS011;9383;50.928;12.116;2022-09-12T16:33:32;2.20;;;2.10;;
18507;SDS011;9383;50.928;12.116;2022-09-12T16:38:33;2.10;;;2.00;;
18507;SDS011;9383;50.928;12.116;2022-09-12T16:41:05;3.88;;;1.92;;
18507;SDS011;9383;50.928;12.116;2022-09-12T16:43:33;2.25;;;2.10;;
18507;SDS011;9383;50.928;12.116;2022-09-12T16:46:04;2.72;;;2.38;;
18507;SDS011;9383;50.928;12.116;2022-09-12T16:48:33;2.35;;;2.25;;
18507;SDS011;9383;50.928;12.116;2022-09-12T16:51:01;2.95;;;2.40;;
18507;SDS011;9383;50.928;12.116;2022-09-12T16:53:31;2.47;;;2.20;;
18507;SDS011;9383;50.928;12.116;2022-09-12T16:56:01;3.17;;;2.58;;
18507;SDS011;9383;50.928;12.116;2022-09-12T16:58:38;2.25;;;2.10;;
18507;SDS011;9383;50.928;12.116;2022-09-12T17:01:10;3.00;;;2.30;;
18507;SDS011;9383;50.928;12.116;2022-09-12T17:03:41;2.47;;;2.30;;
18507;SDS011;9383;50.928;12.116;2022-09-12T17:06:12;2.38;;;2.20;;
18507;SDS011;9383;50.928;12.116;2022-09-12T17:08:43;2.38;;;2.17;;
18507;SDS011;9383;50.928;12.116;2022-09-12T17:11:15;2.58;;;2.38;;
18507;SDS011;9383;50.928;12.116;2022-09-12T17:13:49;2.25;;;2.10;;
18507;SDS011;9383;50.928;12.116;2022-09-12T17:16:20;2.97;;;2.15;;
18507;SDS011;9383;50.928;12.116;2022-09-12T17:18:48;3.13;;;2.65;;
18507;SDS011;9383;50.928;12.116;2022-09-12T17:21:16;2.33;;;2.15;;
18507;SDS011;9383;50.928;12.116;2022-09-12T17:23:42;3.13;;;2.28;;
18507;SDS011;9383;50.928;12.116;2022-09-12T17:26:10;6.93;;;2.40;;
18507;SDS011;9383;50.928;12.116;2022-09-12T17:28:38;2.35;;;2.10;;
18507;SDS011;9383;50.928;12.116;2022-09-12T17:31:05;2.83;;;2.60;;
18507;SDS011;9383;50.928;12.116;2022-09-12T17:33:35;3.30;;;2.03;;
18507;SDS011;9383;50.928;12.116;2022-09-12T17:36:05;2.55;;;2.35;;
18507;SDS011;9383;50.928;12.116;2022-09-12T17:38:37;2.50;;;1.98;;
18507;SDS011;9383;50.928;12.116;2022-09-12T17:41:12;2.40;;;2.20;;